sensor_id;sensor_type;location;lat;lon;timestamp;temperature;humidity
41080;DHT22;26826;50.718;7.114;2022-10-31T00:04:00;13.00;99.90
41080;DHT22;26826;50.718;7.114;2022-10-31T00:14:01;13.00;99.90
41080;DHT22;26826;50.718;7.114;2022-10-31T00:24:02;12.90;99.90
41080;DHT22;26826;50.718;7.114;2022-10-31T00:34:03;12.90;99.90
41080;DHT22;26826;50.718;7.114;2022-10-31T00:44:04;12.90;99.90
41080;DHT22;26826;50.718;7.114;2022-10-31T00:54:04;12.80;99.90
41080;DHT22;26826;50.718;7.114;2022-10-31T01:04:05;12.80;99.90
41080;DHT22;26826;50.718;7.114;2022-10-31T01:14:05;12.70;99.90
41080;DHT22;26826;50.718;7.114;2022-10-31T01:24:06;12.60;99.90
41080;DHT22;26826;50.718;7.114;2022-10-31T01:34:07;12.60;99.90
41080;DHT22;26826;50.718;7.114;2022-10-31T02:04:56;12.40;99.90
41080;DHT22;26826;50.718;7.114;2022-10-31T02:14:58;12.20;99.90
41080;DHT22;26826;50.718;7.114;2022-10-31T02:56:23;12.30;99.90
41080;DHT22;26826;50.718;7.114;2022-10-31T03:06:33;12.10;99.90
41080;DHT22;26826;50.718;7.114;2022-10-31T03:16:49;12.10;99.90
41080;DHT22;26826;50.718;7.114;2022-10-31T03:26:53;12.10;99.90
41080;DHT22;26826;50.718;7.114;2022-10-31T03:36:58;12.00;99.90
41080;DHT22;26826;50.718;7.114;2022-10-31T03:46:59;12.20;99.90
41080;DHT22;26826;50.718;7.114;2022-10-31T04:07:27;11.90;99.90
41080;DHT22;26826;50.718;7.114;2022-10-31T04:17:31;11.90;99.90
41080;DHT22;26826;50.718;7.114;2022-10-31T04:27:33;11.80;99.90
41080;DHT22;26826;50.718;7.114;2022-10-31T04:37:33;11.80;99.90
41080;DHT22;26826;50.718;7.114;2022-10-31T04:47:34;11.70;99.90
41080;DHT22;26826;50.718;7.114;2022-10-31T04:57:45;11.70;99.90
41080;DHT22;26826;50.718;7.114;2022-10-31T05:07:47;11.60;99.90
41080;DHT22;26826;50.718;7.114;2022-10-31T05:17:48;11.70;99.90
41080;DHT22;26826;50.718;7.114;2022-10-31T05:27:51;11.70;99.90
41080;DHT22;26826;50.718;7.114;2022-10-31T05:37:51;11.60;99.90
41080;DHT22;26826;50.718;7.114;2022-10-31T05:47:58;11.60;99.90
41080;DHT22;26826;50.718;7.114;2022-10-31T05:57:59;11.40;99.90
41080;DHT22;26826;50.718;7.114;2022-10-31T06:08:00;11.30;99.90
41080;DHT22;26826;50.718;7.114;2022-10-31T06:18:02;11.30;99.90
41080;DHT22;26826;50.718;7.114;2022-10-31T06:28:03;11.30;99.90
41080;DHT22;26826;50.718;7.114;2022-10-31T06:38:04;11.30;99.90
41080;DHT22;26826;50.718;7.114;2022-10-31T06:48:05;11.30;99.90
41080;DHT22;26826;50.718;7.114;2022-10-31T06:58:05;11.50;99.90
41080;DHT22;26826;50.718;7.114;2022-10-31T07:08:08;11.50;99.90
41080;DHT22;26826;50.718;7.114;2022-10-31T07:18:10;11.70;99.90
41080;DHT22;26826;50.718;7.114;2022-10-31T07:28:11;11.80;99.90
41080;DHT22;26826;50.718;7.114;2022-10-31T07:38:13;11.80;99.90
41080;DHT22;26826;50.718;7.114;2022-10-31T07:48:14;12.10;99.90
41080;DHT22;26826;50.718;7.114;2022-10-31T07:58:16;12.30;99.90
41080;DHT22;26826;50.718;7.114;2022-10-31T08:08:17;12.60;99.90
41080;DHT22;26826;50.718;7.114;2022-10-31T08:18:17;12.60;99.90
41080;DHT22;26826;50.718;7.114;2022-10-31T08:28:18;12.90;99.90
41080;DHT22;26826;50.718;7.114;2022-10-31T08:38:18;13.00;99.90
41080;DHT22;26826;50.718;7.114;2022-10-31T08:48:19;13.20;99.90
41080;DHT22;26826;50.718;7.114;2022-10-31T08:58:20;13.60;99.90
41080;DHT22;26826;50.718;7.114;2022-10-31T09:08:21;13.70;99.90
41080;DHT22;26826;50.718;7.114;2022-10-31T09:18:22;13.90;99.90
41080;DHT22;26826;50.718;7.114;2022-10-31T09:28:24;14.20;99.90
41080;DHT22;26826;50.718;7.114;2022-10-31T09:38:24;14.60;99.90
41080;DHT22;26826;50.718;7.114;2022-10-31T09:49:20;15.30;99.90
41080;DHT22;26826;50.718;7.114;2022-10-31T09:59:31;16.20;99.90
41080;DHT22;26826;50.718;7.114;2022-10-31T10:09:33;16.40;99.90
41080;DHT22;26826;50.718;7.114;2022-10-31T10:50:25;16.70;99.90
41080;DHT22;26826;50.718;7.114;2022-10-31T11:00:31;17.00;99.90
41080;DHT22;26826;50.718;7.114;2022-10-31T11:10:32;17.40;99.90
41080;DHT22;26826;50.718;7.114;2022-10-31T11:20:35;17.40;99.90
41080;DHT22;26826;50.718;7.114;2022-10-31T11:40:58;17.90;99.90
41080;DHT22;26826;50.718;7.114;2022-10-31T11:51:00;18.10;99.90
41080;DHT22;26826;50.718;7.114;2022-10-31T12:01:00;18.10;99.90
41080;DHT22;26826;50.718;7.114;2022-10-31T12:11:36;18.20;99.90
41080;DHT22;26826;50.718;7.114;2022-10-31T12:32:15;18.30;99.90
41080;DHT22;26826;50.718;7.114;2022-10-31T12:42:35;18.20;99.90
41080;DHT22;26826;50.718;7.114;2022-10-31T12:52:54;18.20;99.90
41080;DHT22;26826;50.718;7.114;2022-10-31T13:03:09;18.30;99.90
41080;DHT22;26826;50.718;7.114;2022-10-31T13:13:22;18.20;99.90
41080;DHT22;26826;50.718;7.114;2022-10-31T13:23:32;18.40;99.90
41080;DHT22;26826;50.718;7.114;2022-10-31T13:33:38;18.40;99.90
41080;DHT22;26826;50.718;7.114;2022-10-31T13:44:03;18.60;99.90
41080;DHT22;26826;50.718;7.114;2022-10-31T13:54:32;18.50;99.90
41080;DHT22;26826;50.718;7.114;2022-10-31T14:04:38;18.20;99.90
41080;DHT22;26826;50.718;7.114;2022-10-31T14:14:48;18.20;99.90
41080;DHT22;26826;50.718;7.114;2022-10-31T14:24:50;18.20;99.90
41080;DHT22;26826;50.718;7.114;2022-10-31T14:45:14;18.10;99.90
41080;DHT22;26826;50.718;7.114;2022-10-31T14:55:17;18.10;99.90
41080;DHT22;26826;50.718;7.114;2022-10-31T15:05:19;18.00;99.90
41080;DHT22;26826;50.718;7.114;2022-10-31T15:15:22;18.10;99.90
41080;DHT22;26826;50.718;7.114;2022-10-31T15:25:25;18.20;99.90
41080;DHT22;26826;50.718;7.114;2022-10-31T15:35:30;18.20;99.90
41080;DHT22;26826;50.718;7.114;2022-10-31T15:45:31;18.20;99.90
41080;DHT22;26826;50.718;7.114;2022-10-31T15:55:36;18.00;99.90
41080;DHT22;26826;50.718;7.114;2022-10-31T16:15:52;17.60;99.90
41080;DHT22;26826;50.718;7.114;2022-10-31T16:25:54;17.40;99.90
41080;DHT22;26826;50.718;7.114;2022-10-31T16:35:56;17.40;99.90
41080;DHT22;26826;50.718;7.114;2022-10-31T16:45:57;17.40;99.90
41080;DHT22;26826;50.718;7.114;2022-10-31T16:55:59;17.30;99.90
41080;DHT22;26826;50.718;7.114;2022-10-31T17:06:01;17.20;99.90
41080;DHT22;26826;50.718;7.114;2022-10-31T17:16:02;17.10;99.90
41080;DHT22;26826;50.718;7.114;2022-10-31T17:26:03;17.00;99.90
41080;DHT22;26826;50.718;7.114;2022-10-31T17:36:05;16.90;99.90
41080;DHT22;26826;50.718;7.114;2022-10-31T17:46:07;16.80;99.90
41080;DHT22;26826;50.718;7.114;2022-10-31T17:56:08;16.70;99.90
41080;DHT22;26826;50.718;7.114;2022-10-31T18:06:10;16.50;99.90
41080;DHT22;26826;50.718;7.114;2022-10-31T18:16:16;16.40;99.90
41080;DHT22;26826;50.718;7.114;2022-10-31T18:26:18;16.30;99.90
41080;DHT22;26826;50.718;7.114;2022-10-31T18:46:42;16.30;99.90
41080;DHT22;26826;50.718;7.114;2022-10-31T19:07:24;16.30;99.90
41080;DHT22;26826;50.718;7.114;2022-10-31T19:28:30;16.20;99.90
41080;DHT22;26826;50.718;7.114;2022-10-31T19:48:55;16.10;99.90
41080;DHT22;26826;50.718;7.114;2022-10-31T20:09:37;16.00;99.90
41080;DHT22;26826;50.718;7.114;2022-10-31T20:19:38;15.90;99.90
41080;DHT22;26826;50.718;7.114;2022-10-31T20:29:38;15.70;99.90
41080;DHT22;26826;50.718;7.114;2022-10-31T20:39:39;15.60;99.90
41080;DHT22;26826;50.718;7.114;2022-10-31T20:49:39;15.50;99.90
41080;DHT22;26826;50.718;7.114;2022-10-31T20:59:40;15.50;99.90
41080;DHT22;26826;50.718;7.114;2022-10-31T21:09:41;15.50;99.90
41080;DHT22;26826;50.718;7.114;2022-10-31T21:19:41;15.60;99.90
41080;DHT22;26826;50.718;7.114;2022-10-31T21:29:42;15.60;99.90
41080;DHT22;26826;50.718;7.114;2022-10-31T21:39:42;15.70;99.90
41080;DHT22;26826;50.718;7.114;2022-10-31T21:49:43;15.70;99.90
41080;DHT22;26826;50.718;7.114;2022-10-31T21:59:44;15.80;99.90
41080;DHT22;26826;50.718;7.114;2022-10-31T22:09:47;15.80;99.90
41080;DHT22;26826;50.718;7.114;2022-10-31T22:19:48;15.90;99.90
41080;DHT22;26826;50.718;7.114;2022-10-31T22:29:48;15.90;99.90
41080;DHT22;26826;50.718;7.114;2022-10-31T22:39:49;15.90;99.90
41080;DHT22;26826;50.718;7.114;2022-10-31T22:49:50;16.00;99.90
41080;DHT22;26826;50.718;7.114;2022-10-31T22:59:50;16.10;99.90
41080;DHT22;26826;50.718;7.114;2022-10-31T23:09:51;16.10;99.90
41080;DHT22;26826;50.718;7.114;2022-10-31T23:19:51;16.20;99.90
41080;DHT22;26826;50.718;7.114;2022-10-31T23:29:55;16.30;99.90
41080;DHT22;26826;50.718;7.114;2022-10-31T23:39:56;16.30;99.90
41080;DHT22;26826;50.718;7.114;2022-10-31T23:49:57;16.20;99.90
41080;DHT22;26826;50.718;7.114;2022-10-31T23:59:57;16.20;99.90
